Time;durP1;ratioP1;P1;durP2;ratioP2;P2;SDS_P1;SDS_P2;PMS_P1;PMS_P2;Temp;Humidity;BMP_temperature;BMP_pressure;BME280_temperature;BME280_humidity;BME280_pressure;Samples;Min_cycle;Max_cycle;Signal;HPM_P1;HPM_P2
2021/04/14 00:01:14;;;;;;;3.17;2.87;;;0.90;99.90;;;;;;5015710;28;20568;-75
2021/04/14 00:03:42;;;;;;;4.27;3.10;;;0.90;99.90;;;;;;5016596;28;20984;-75
2021/04/14 00:06:10;;;;;;;3.40;2.70;;;0.90;99.90;;;;;;5016518;28;20474;-75
2021/04/14 00:08:38;;;;;;;2.70;2.50;;;0.80;99.90;;;;;;5016847;28;20436;-78
2021/04/14 00:11:08;;;;;;;3.20;2.83;;;0.80;99.90;;;;;;5016712;28;20519;-78
2021/04/14 00:13:42;;;;;;;8.07;2.90;;;0.70;99.90;;;;;;5016262;28;20524;-78
2021/04/14 00:16:11;;;;;;;3.77;2.10;;;0.60;99.90;;;;;;5015403;28;20495;-75
2021/04/14 00:18:39;;;;;;;3.50;2.40;;;0.60;99.90;;;;;;5016080;28;21011;-76
2021/04/14 00:21:07;;;;;;;2.37;2.17;;;0.50;99.90;;;;;;4998733;28;20439;-74
2021/04/14 00:23:39;;;;;;;2.73;2.47;;;0.40;99.90;;;;;;5016144;28;20491;-75
2021/04/14 00:26:09;;;;;;;4.37;2.80;;;0.40;99.90;;;;;;5015775;28;20746;-78
2021/04/14 00:28:38;;;;;;;7.03;3.00;;;0.30;99.90;;;;;;5015872;28;20558;-78
2021/04/14 00:31:06;;;;;;;2.43;2.23;;;0.10;99.90;;;;;;5015108;28;20961;-77
2021/04/14 00:33:34;;;;;;;3.93;2.73;;;0.10;99.90;;;;;;4998267;28;20564;-75
2021/04/14 00:36:01;;;;;;;4.30;3.27;;;0.10;99.90;;;;;;4998539;28;20442;-75
2021/04/14 00:38:29;;;;;;;5.30;2.90;;;0.00;99.90;;;;;;4998295;28;20445;-75
2021/04/14 00:40:59;;;;;;;8.00;3.57;;;0.00;99.90;;;;;;5016026;28;20773;-77
2021/04/14 00:46:22;;;;;;;3.63;3.10;;;-0.10;99.90;;;;;;5014525;28;20888;-75
2021/04/14 00:48:50;;;;;;;3.33;2.70;;;-0.20;99.90;;;;;;5015977;28;20440;-76
2021/04/14 00:51:19;;;;;;;2.50;2.30;;;-0.30;99.90;;;;;;4997906;28;20439;-77
2021/04/14 00:53:47;;;;;;;4.10;3.30;;;-0.30;99.90;;;;;;4998360;28;20424;-76
2021/04/14 00:56:15;;;;;;;3.43;2.13;;;-0.40;99.90;;;;;;4998344;28;20454;-75
2021/04/14 00:58:43;;;;;;;3.80;2.80;;;-0.40;99.90;;;;;;5015764;28;20448;-75
2021/04/14 01:01:11;;;;;;;4.73;3.00;;;-0.40;99.90;;;;;;5014851;28;20487;-75
2021/04/14 01:03:39;;;;;;;4.30;3.57;;;-0.40;99.90;;;;;;4997515;28;20941;-75
2021/04/14 01:06:12;;;;;;;3.40;2.33;;;-0.50;99.90;;;;;;5015393;28;20467;-78
2021/04/14 01:08:40;;;;;;;3.37;2.70;;;-0.50;99.90;;;;;;4981830;28;20524;-76
2021/04/14 01:11:10;;;;;;;3.10;2.80;;;-0.50;99.90;;;;;;5015413;28;20440;-76
2021/04/14 01:13:38;;;;;;;3.23;2.73;;;-0.60;99.90;;;;;;5015663;28;20506;-79
2021/04/14 01:16:05;;;;;;;4.00;3.60;;;-0.60;99.90;;;;;;5014580;28;20472;-78
2021/04/14 01:18:40;;;;;;;3.93;2.70;;;-0.60;99.90;;;;;;5015710;28;20531;-78
2021/04/14 01:21:10;;;;;;;3.30;3.00;;;-0.60;99.90;;;;;;5015244;28;20523;-76
2021/04/14 01:23:39;;;;;;;6.17;3.87;;;-0.60;99.90;;;;;;5015379;28;20428;-77
2021/04/14 01:26:07;;;;;;;3.07;2.77;;;-0.60;99.90;;;;;;4997321;28;20798;-79
2021/04/14 01:28:37;;;;;;;6.27;3.83;;;-0.60;99.90;;;;;;5014895;28;20445;-76
2021/04/14 01:31:06;;;;;;;9.80;2.80;;;-0.60;99.90;;;;;;5014373;28;20478;-76
2021/04/14 01:33:34;;;;;;;4.83;3.33;;;-0.60;99.90;;;;;;5015047;28;20801;-76
2021/04/14 01:36:06;;;;;;;5.03;3.63;;;-0.70;99.90;;;;;;4997904;28;20440;-76
2021/04/14 01:38:35;;;;;;;3.03;2.73;;;-0.70;99.90;;;;;;5014992;28;20451;-76
2021/04/14 01:41:05;;;;;;;3.33;2.50;;;-0.80;99.90;;;;;;4997779;28;20775;-75
2021/04/14 01:43:40;;;;;;;3.30;2.63;;;-0.80;99.90;;;;;;5015030;28;20456;-75
2021/04/14 01:46:07;;;;;;;3.20;2.90;;;-0.80;99.90;;;;;;5013100;28;20502;-76
2021/04/14 01:48:34;;;;;;;4.50;3.40;;;-0.80;99.90;;;;;;5015092;28;20447;-76
2021/04/14 01:51:02;;;;;;;3.57;3.17;;;-0.80;99.90;;;;;;5015147;28;20495;-76
2021/04/14 01:53:30;;;;;;;7.50;4.13;;;-0.80;99.90;;;;;;4997056;28;20440;-76
2021/04/14 01:55:57;;;;;;;5.30;2.93;;;-0.80;99.90;;;;;;5014331;28;20515;-75
2021/04/14 01:58:29;;;;;;;4.30;2.93;;;-0.90;99.90;;;;;;4996982;28;20464;-76
2021/04/14 02:00:59;;;;;;;3.90;3.50;;;-0.90;99.90;;;;;;5013472;28;20484;-75
2021/04/14 02:03:31;;;;;;;6.30;3.70;;;-0.90;99.90;;;;;;5014800;28;20953;-76
2021/04/14 02:05:59;;;;;;;3.00;2.70;;;-0.90;99.90;;;;;;4980932;28;20807;-76
2021/04/14 02:08:26;;;;;;;5.90;3.13;;;-0.90;99.90;;;;;;5014646;28;20444;-78
2021/04/14 02:10:58;;;;;;;2.63;2.40;;;-1.00;99.90;;;;;;5014786;28;20519;-76
2021/04/14 02:13:29;;;;;;;3.40;2.73;;;-1.00;99.90;;;;;;5014522;28;20444;-79
2021/04/14 02:15:58;;;;;;;7.00;3.40;;;-1.00;99.90;;;;;;4996531;28;20510;-75
2021/04/14 02:18:26;;;;;;;4.37;3.27;;;-1.10;99.90;;;;;;5016319;28;20443;-76
2021/04/14 02:21:20;;;;;;;3.67;3.20;;;-1.10;99.90;;;;;;4997308;28;20531;-75
2021/04/14 02:23:50;;;;;;;3.47;3.00;;;-1.10;99.90;;;;;;5014507;28;20995;-76
2021/04/14 02:26:20;;;;;;;2.90;2.40;;;-1.10;99.90;;;;;;4996687;28;20468;-75
2021/04/14 02:28:50;;;;;;;8.50;2.97;;;-1.10;99.90;;;;;;5013907;28;20471;-76
2021/04/14 02:31:29;;;;;;;9.93;3.70;;;-1.10;99.90;;;;;;5012530;28;20809;-75
2021/04/14 02:33:59;;;;;;;2.50;2.30;;;-1.10;99.90;;;;;;5013731;28;20471;-75
2021/04/14 02:36:27;;;;;;;5.00;2.97;;;-1.20;99.90;;;;;;5014156;28;20947;-75
2021/04/14 02:38:55;;;;;;;3.23;2.70;;;-1.30;99.90;;;;;;5013779;28;20481;-76
2021/04/14 02:41:22;;;;;;;5.87;3.23;;;-1.30;99.90;;;;;;4996780;28;20870;-76
2021/04/14 02:43:54;;;;;;;3.27;2.63;;;-1.20;99.90;;;;;;5014040;28;20488;-75
2021/04/14 02:46:22;;;;;;;5.30;2.70;;;-1.30;99.90;;;;;;5012960;28;20495;-75
2021/04/14 02:48:50;;;;;;;3.10;2.40;;;-1.30;99.90;;;;;;5013951;28;20436;-76
2021/04/14 02:51:18;;;;;;;6.37;3.97;;;-1.30;99.90;;;;;;4996384;28;20498;-76
2021/04/14 02:53:46;;;;;;;6.07;3.53;;;-1.30;99.90;;;;;;4980468;28;20439;-75
2021/04/14 02:56:13;;;;;;;3.83;3.03;;;-1.30;99.90;;;;;;5013731;28;20468;-75
2021/04/14 02:58:41;;;;;;;6.57;2.90;;;-1.40;99.90;;;;;;5017537;28;20441;-75
2021/04/14 03:01:10;;;;;;;5.60;2.73;;;-1.40;99.90;;;;;;4999555;28;20499;-75
2021/04/14 03:03:37;;;;;;;3.03;2.73;;;-1.40;99.90;;;;;;5017935;28;20432;-76
2021/04/14 03:06:06;;;;;;;4.80;2.77;;;-1.40;99.90;;;;;;5000609;28;20467;-75
2021/04/14 03:08:33;;;;;;;4.10;2.97;;;-1.40;99.90;;;;;;5017929;28;20434;-76
2021/04/14 03:11:01;;;;;;;9.17;3.60;;;-1.40;99.90;;;;;;5017809;28;20427;-75
2021/04/14 03:13:29;;;;;;;4.00;3.30;;;-1.40;99.90;;;;;;5000096;28;20440;-75
2021/04/14 03:15:56;;;;;;;3.60;3.17;;;-1.50;99.90;;;;;;5017437;28;20550;-75
2021/04/14 03:18:25;;;;;;;3.83;2.83;;;-1.50;99.90;;;;;;5017795;28;20440;-75
2021/04/14 03:21:17;;;;;;;6.43;3.40;;;-1.50;99.90;;;;;;5000132;28;20447;-75
2021/04/14 03:23:45;;;;;;;3.57;2.40;;;-1.50;99.90;;;;;;5000403;28;20436;-76
2021/04/14 03:26:12;;;;;;;3.67;2.93;;;-1.50;99.90;;;;;;5000421;28;20471;-75
2021/04/14 03:28:40;;;;;;;6.57;3.43;;;-1.50;99.90;;;;;;5018527;28;20523;-75
2021/04/14 03:31:08;;;;;;;3.90;3.10;;;-1.40;99.90;;;;;;5016498;28;20464;-75
2021/04/14 03:33:37;;;;;;;4.00;3.23;;;-1.50;99.90;;;;;;5017562;28;20526;-75
2021/04/14 03:36:05;;;;;;;3.33;2.33;;;-1.50;99.90;;;;;;5018210;28;20968;-78
2021/04/14 03:38:33;;;;;;;3.57;3.23;;;-1.50;99.90;;;;;;5000346;28;20454;-75
2021/04/14 03:41:01;;;;;;;5.70;2.37;;;-1.60;99.90;;;;;;5000072;28;20439;-75
2021/04/14 03:43:54;;;;;;;7.57;3.70;;;-1.60;99.90;;;;;;4984534;28;20520;-76
2021/04/14 03:46:23;;;;;;;2.47;2.03;;;-1.70;99.90;;;;;;4998991;28;20487;-76
2021/04/14 03:48:52;;;;;;;4.13;2.93;;;-1.70;99.90;;;;;;5017431;28;20470;-75
2021/04/14 03:51:22;;;;;;;4.60;3.30;;;-1.70;99.90;;;;;;5016529;28;20534;-75
2021/04/14 03:53:50;;;;;;;2.93;2.50;;;-1.70;99.90;;;;;;4999201;28;20757;-78
2021/04/14 03:56:18;;;;;;;3.63;2.70;;;-1.60;99.90;;;;;;5016608;28;20512;-76
2021/04/14 03:58:49;;;;;;;4.13;3.20;;;-1.60;99.90;;;;;;4999141;28;20448;-75
2021/04/14 04:01:19;;;;;;;5.00;3.20;;;-1.60;99.90;;;;;;4997865;28;20483;-75
2021/04/14 04:03:47;;;;;;;2.50;2.30;;;-1.60;99.90;;;;;;5016112;28;20563;-75
2021/04/14 04:06:15;;;;;;;3.00;2.70;;;-1.70;99.90;;;;;;4998877;28;20807;-77
2021/04/14 04:08:43;;;;;;;8.90;2.97;;;-1.80;99.90;;;;;;4998673;28;20506;-76
2021/04/14 04:11:11;;;;;;;9.50;2.83;;;-1.80;99.90;;;;;;5016979;28;20443;-76
2021/04/14 04:13:39;;;;;;;4.03;2.50;;;-1.80;99.90;;;;;;4999887;28;20437;-76
2021/04/14 04:16:06;;;;;;;5.93;2.67;;;-1.80;99.90;;;;;;5016191;28;20468;-75
2021/04/14 04:18:38;;;;;;;4.10;3.30;;;-1.90;99.90;;;;;;5016381;28;20444;-76
2021/04/14 04:21:07;;;;;;;10.83;2.60;;;-1.90;99.90;;;;;;5016056;28;20433;-76
2021/04/14 04:23:36;;;;;;;4.13;3.10;;;-1.90;99.90;;;;;;5015570;28;20437;-76
2021/04/14 04:26:05;;;;;;;4.97;3.20;;;-1.90;99.90;;;;;;4998098;28;20515;-75
2021/04/14 04:28:34;;;;;;;6.60;3.30;;;-1.90;99.90;;;;;;5015545;28;20520;-76
2021/04/14 04:31:02;;;;;;;7.87;3.87;;;-1.90;99.90;;;;;;5014350;28;20495;-75
2021/04/14 04:33:30;;;;;;;4.10;2.80;;;-1.90;99.90;;;;;;5015156;28;20521;-75
2021/04/14 04:35:58;;;;;;;6.70;4.00;;;-1.90;99.90;;;;;;5015168;28;20443;-76
2021/04/14 04:38:27;;;;;;;4.70;3.20;;;-1.90;99.90;;;;;;5015837;28;20433;-75
2021/04/14 04:40:56;;;;;;;12.83;5.50;;;-1.90;99.90;;;;;;4998318;28;20443;-75
2021/04/14 04:43:24;;;;;;;4.30;2.83;;;-1.90;99.90;;;;;;4998415;28;20427;-75
2021/04/14 04:45:52;;;;;;;4.20;3.40;;;-1.90;99.90;;;;;;5014991;28;20490;-75
2021/04/14 04:48:20;;;;;;;5.73;3.30;;;-1.90;99.90;;;;;;5016395;28;20475;-75
2021/04/14 04:50:47;;;;;;;5.47;3.23;;;-1.80;99.90;;;;;;5015756;28;20511;-79
2021/04/14 04:53:18;;;;;;;5.20;3.80;;;-1.80;99.90;;;;;;4998112;28;20428;-75
2021/04/14 04:55:47;;;;;;;4.53;2.93;;;-1.80;99.90;;;;;;4998644;28;20976;-75
2021/04/14 04:58:17;;;;;;;5.87;3.90;;;-1.80;99.90;;;;;;5015923;28;20451;-76
2021/04/14 05:00:46;;;;;;;6.30;3.43;;;-1.80;99.90;;;;;;4997785;28;20464;-75
2021/04/14 05:03:15;;;;;;;7.00;3.70;;;-1.80;99.90;;;;;;4997964;28;20444;-76
2021/04/14 05:05:45;;;;;;;5.60;2.83;;;-1.80;99.90;;;;;;5016052;28;20447;-75
2021/04/14 05:08:13;;;;;;;7.53;2.83;;;-1.80;99.90;;;;;;4998836;28;20475;-76
2021/04/14 05:10:40;;;;;;;5.70;3.30;;;-1.70;99.90;;;;;;5015824;28;20444;-76
2021/04/14 05:13:09;;;;;;;4.37;3.07;;;-1.50;99.90;;;;;;4998491;28;20428;-76
2021/04/14 05:15:39;;;;;;;8.50;3.90;;;-1.40;99.90;;;;;;4997407;28;20495;-75
2021/04/14 05:18:08;;;;;;;3.30;3.00;;;-1.40;99.90;;;;;;4998307;28;20451;-75
2021/04/14 05:23:28;;;;;;;6.30;3.40;;;-1.20;99.90;;;;;;5016077;28;20440;-75
2021/04/14 05:25:56;;;;;;;7.13;3.50;;;-1.00;99.90;;;;;;4981975;28;20451;-76
2021/04/14 05:28:25;;;;;;;4.53;3.00;;;-0.90;99.90;;;;;;4998567;28;20482;-76
2021/04/14 05:30:55;;;;;;;16.27;4.43;;;-0.80;99.90;;;;;;4979929;28;20472;-76
2021/04/14 05:33:23;;;;;;;11.33;4.10;;;-0.60;99.90;;;;;;4981796;28;20476;-75
2021/04/14 05:35:52;;;;;;;4.60;4.20;;;-0.50;99.90;;;;;;5016196;28;20440;-75
2021/04/14 05:38:19;;;;;;;8.00;4.17;;;-0.40;99.90;;;;;;5014773;28;20441;-77
2021/04/14 05:40:48;;;;;;;4.53;3.70;;;-0.30;99.90;;;;;;5015546;28;20439;-76
2021/04/14 05:43:18;;;;;;;5.20;3.57;;;-0.20;99.90;;;;;;5015578;28;20433;-75
2021/04/14 05:45:47;;;;;;;9.50;3.33;;;-0.10;99.90;;;;;;4997243;28;20881;-75
2021/04/14 05:48:15;;;;;;;6.30;3.90;;;0.00;99.90;;;;;;5016471;28;20460;-75
2021/04/14 05:50:43;;;;;;;5.97;3.97;;;0.30;99.90;;;;;;5015549;28;20820;-76
2021/04/14 05:53:13;;;;;;;5.47;4.20;;;0.60;99.90;;;;;;4998357;28;20193;-76
2021/04/14 05:55:40;;;;;;;8.07;4.70;;;1.00;99.90;;;;;;5015984;28;20917;-75
2021/04/14 05:58:08;;;;;;;9.20;3.70;;;1.50;99.90;;;;;;5015522;28;20443;-75
2021/04/14 06:00:36;;;;;;;12.10;3.47;;;1.90;99.90;;;;;;5014143;28;20956;-76
2021/04/14 06:03:04;;;;;;;13.03;4.07;;;2.40;99.90;;;;;;5014784;28;20440;-76
2021/04/14 06:05:32;;;;;;;10.77;4.00;;;3.00;99.90;;;;;;4997592;28;20436;-77
2021/04/14 06:08:00;;;;;;;9.27;4.30;;;3.80;99.90;;;;;;5015634;28;20468;-76
2021/04/14 06:10:27;;;;;;;5.70;4.00;;;4.50;99.90;;;;;;4997760;28;20490;-76
2021/04/14 06:12:56;;;;;;;3.80;3.23;;;5.40;98.90;;;;;;5015387;28;20774;-75
2021/04/14 06:15:26;;;;;;;3.80;3.50;;;5.90;97.10;;;;;;5014599;28;20459;-76
2021/04/14 06:17:54;;;;;;;7.60;4.17;;;5.90;96.10;;;;;;4982182;28;20444;-79
2021/04/14 06:20:27;;;;;;;4.30;3.87;;;5.90;95.80;;;;;;5015472;28;20450;-77
2021/04/14 06:23:23;;;;;;;5.10;4.17;;;6.30;95.30;;;;;;5015466;28;20436;-76
2021/04/14 06:26:00;;;;;;;7.20;4.63;;;7.70;93.20;;;;;;5014259;28;20481;-75
2021/04/14 06:28:29;;;;;;;4.40;4.00;;;7.50;91.30;;;;;;5014216;28;20444;-76
2021/04/14 06:30:57;;;;;;;6.93;4.60;;;7.10;92.10;;;;;;4995697;28;20490;-77
2021/04/14 06:33:26;;;;;;;6.70;4.67;;;7.80;91.40;;;;;;5014503;28;20971;-76
2021/04/14 06:35:56;;;;;;;19.33;14.90;;;8.60;90.00;;;;;;4997117;28;20515;-76
2021/04/14 06:38:27;;;;;;;9.17;4.53;;;8.40;88.10;;;;;;4997812;28;20853;-77
2021/04/14 06:41:23;;;;;;;4.70;4.30;;;8.40;86.80;;;;;;4985521;28;20453;-77
2021/04/14 06:43:58;;;;;;;6.23;4.20;;;8.30;88.30;;;;;;4998350;28;20523;-77
2021/04/14 06:46:29;;;;;;;4.57;3.30;;;8.50;86.10;;;;;;5015964;28;20444;-77
2021/04/14 06:49:02;;;;;;;5.50;3.30;;;8.60;84.50;;;;;;5002826;28;20516;-77
2021/04/14 06:51:37;;;;;;;6.73;5.07;;;8.80;84.90;;;;;;5003530;28;20431;-76
2021/04/14 06:54:18;;;;;;;4.17;3.50;;;9.80;81.60;;;;;;4999838;28;20523;-79
2021/04/14 06:56:50;;;;;;;4.93;3.47;;;9.60;79.70;;;;;;5020190;28;20440;-76
2021/04/14 06:59:20;;;;;;;4.40;3.50;;;10.60;77.00;;;;;;5004955;28;20997;-79
2021/04/14 07:01:51;;;;;;;7.80;3.60;;;10.10;75.40;;;;;;4989947;28;20479;-79
2021/04/14 07:04:24;;;;;;;4.80;4.30;;;10.10;76.20;;;;;;5005987;28;20532;-75
2021/04/14 07:06:54;;;;;;;7.13;3.70;;;10.50;75.70;;;;;;5002505;28;20469;-76
2021/04/14 07:09:30;;;;;;;4.63;3.40;;;10.00;75.20;;;;;;5008589;28;20865;-78
2021/04/14 07:11:58;;;;;;;3.90;3.07;;;9.90;75.50;;;;;;5034486;28;20447;-76
2021/04/14 07:14:26;;;;;;;6.07;3.40;;;10.60;74.80;;;;;;5017247;28;20451;-76
2021/04/14 07:17:20;;;;;;;5.53;3.25;;;11.60;71.30;;;;;;5031882;28;20439;-76
2021/04/14 07:20:07;;;;;;;5.07;3.10;;;11.50;70.00;;;;;;5035195;28;20193;-79
2021/04/14 07:25:48;;;;;;;5.10;2.70;;;12.40;66.00;;;;;;5017062;28;20503;-76
2021/04/14 07:28:42;;;;;;;7.40;3.90;;;12.10;64.60;;;;;;5017141;28;20502;-76
2021/04/14 07:31:14;;;;;;;4.20;3.43;;;11.80;66.30;;;;;;5020044;28;20475;-76
2021/04/14 07:33:54;;;;;;;4.57;3.00;;;12.50;66.10;;;;;;5016814;28;20525;-75
2021/04/14 07:39:30;;;;;;;2.90;2.67;;;12.40;60.80;;;;;;5031565;28;20501;-74
2021/04/14 07:42:21;;;;;;;3.40;3.00;;;13.30;60.80;;;;;;5003744;28;20492;-74
2021/04/14 07:45:00;;;;;;;9.50;3.07;;;12.70;60.80;;;;;;5022317;28;20435;-74
2021/04/14 07:47:29;;;;;;;4.33;2.73;;;11.60;64.00;;;;;;4983340;28;20489;-74
2021/04/14 07:49:58;;;;;;;4.60;3.17;;;11.60;65.20;;;;;;4967985;28;21001;-79
2021/04/14 07:52:30;;;;;;;3.83;3.07;;;11.90;63.80;;;;;;4983156;28;20518;-74
2021/04/14 07:55:00;;;;;;;5.27;3.37;;;12.20;61.20;;;;;;4999758;28;20950;-74
2021/04/14 07:57:32;;;;;;;4.93;3.10;;;11.80;62.40;;;;;;4999428;28;20525;-78
2021/04/14 08:00:10;;;;;;;4.63;3.20;;;12.30;63.40;;;;;;4999573;28;20431;-78
2021/04/14 08:02:38;;;;;;;5.53;3.37;;;13.00;61.70;;;;;;4999267;28;20469;-76
2021/04/14 08:05:13;;;;;;;7.53;5.73;;;13.10;60.10;;;;;;4999405;28;20440;-80
2021/04/14 08:07:43;;;;;;;5.47;3.00;;;13.80;58.90;;;;;;4998895;28;20467;-77
2021/04/14 08:10:14;;;;;;;3.53;2.77;;;12.40;61.00;;;;;;4998470;28;20527;-75
2021/04/14 08:12:54;;;;;;;5.93;2.93;;;13.90;60.60;;;;;;4981853;28;20444;-76
2021/04/14 08:15:32;;;;;;;4.07;3.13;;;13.30;57.90;;;;;;4983711;28;20448;-76
2021/04/14 08:18:22;;;;;;;4.90;3.50;;;14.70;56.10;;;;;;5001422;28;20798;-76
2021/04/14 08:21:11;;;;;;;5.03;3.00;;;16.30;55.40;;;;;;5000392;28;20525;-78
2021/04/14 08:23:51;;;;;;;5.90;3.93;;;14.20;54.00;;;;;;4984387;28;20443;-76
2021/04/14 08:26:21;;;;;;;4.70;3.07;;;14.50;57.40;;;;;;5018999;28;20861;-75
2021/04/14 08:28:51;;;;;;;3.23;2.93;;;14.20;56.30;;;;;;5000202;28;20463;-74
2021/04/14 08:31:34;;;;;;;4.53;2.70;;;15.00;56.00;;;;;;5016972;28;20828;-77
2021/04/14 08:34:14;;;;;;;2.20;2.00;;;14.60;53.50;;;;;;5000011;28;20480;-79
2021/04/14 08:36:48;;;;;;;3.47;2.23;;;14.60;52.50;;;;;;5000405;28;20466;-74
2021/04/14 08:39:20;;;;;;;4.63;2.80;;;16.70;49.80;;;;;;5017826;28;20495;-75
2021/04/14 08:41:48;;;;;;;14.63;11.27;;;15.20;51.00;;;;;;4984712;28;20479;-75
2021/04/14 08:44:31;;;;;;;31.87;22.47;;;16.60;50.80;;;;;;5018272;28;20439;-74
2021/04/14 08:47:16;;;;;;;7.67;3.07;;;16.30;48.80;;;;;;5016708;28;20528;-75
2021/04/14 08:49:45;;;;;;;2.97;2.60;;;14.60;50.30;;;;;;5018340;28;20452;-74
2021/04/14 08:53:00;;;;;;;6.80;2.37;;;14.30;54.00;;;;;;5018818;28;20440;-74
2021/04/14 08:55:29;;;;;;;3.90;2.40;;;15.10;50.60;;;;;;5000941;28;20436;-77
2021/04/14 08:57:59;;;;;;;3.77;2.57;;;16.60;48.80;;;;;;5017843;28;20463;-74
2021/04/14 09:00:28;;;;;;;4.70;2.43;;;17.20;46.30;;;;;;5000787;28;20832;-77
2021/04/14 09:03:00;;;;;;;2.43;2.13;;;16.10;46.30;;;;;;5017832;28;20506;-75
2021/04/14 09:05:29;;;;;;;4.50;2.90;;;13.60;50.10;;;;;;5017226;28;20988;-75
2021/04/14 09:07:58;;;;;;;4.83;2.30;;;13.80;53.50;;;;;;5017693;28;20464;-75
2021/04/14 09:10:39;;;;;;;2.87;2.57;;;13.00;53.20;;;;;;5017941;28;20455;-75
2021/04/14 09:13:09;;;;;;;3.43;2.10;;;11.00;57.50;;;;;;5017538;28;20439;-74
2021/04/14 09:15:52;;;;;;;2.40;2.20;;;9.50;62.30;;;;;;5015745;28;20582;-73
2021/04/14 09:18:38;;;;;;;4.17;3.03;;;9.40;64.30;;;;;;4985471;28;20988;-73
2021/04/14 09:21:10;;;;;;;5.33;2.20;;;8.50;65.80;;;;;;5002691;28;20954;-73
2021/04/14 09:23:41;;;;;;;2.60;1.80;;;8.10;66.40;;;;;;4999944;28;20430;-76
2021/04/14 09:26:22;;;;;;;2.00;1.80;;;7.50;66.90;;;;;;5000583;28;20411;-74
2021/04/14 09:28:51;;;;;;;3.63;2.03;;;7.60;68.60;;;;;;5020335;28;20463;-77
2021/04/14 09:31:39;;;;;;;2.07;1.70;;;8.40;68.40;;;;;;5022104;28;20840;-74
2021/04/14 09:34:16;;;;;;;5.90;2.23;;;9.40;66.80;;;;;;5022276;28;20470;-75
2021/04/14 09:36:48;;;;;;;1.73;1.63;;;12.10;58.90;;;;;;5018228;28;20534;-75
2021/04/14 09:39:36;;;;;;;2.10;1.77;;;14.50;51.90;;;;;;5016950;28;20802;-74
2021/04/14 09:42:15;;;;;;;3.23;1.77;;;14.00;46.80;;;;;;5015654;28;21028;-74
2021/04/14 09:44:44;;;;;;;23.23;5.30;;;12.20;49.60;;;;;;5016547;28;20439;-75
2021/04/14 09:47:32;;;;;;;3.00;1.80;;;11.20;52.30;;;;;;4998100;28;20497;-75
2021/04/14 09:53:23;;;;;;;1.90;1.50;;;9.00;60.00;;;;;;4999030;28;20443;-75
2021/04/14 09:55:54;;;;;;;6.27;1.43;;;8.30;64.10;;;;;;4983095;28;20451;-75
2021/04/14 09:58:25;;;;;;;2.77;1.43;;;7.90;66.20;;;;;;5017219;28;20490;-75
2021/04/14 10:01:08;;;;;;;2.53;1.40;;;7.80;68.00;;;;;;5018366;28;20849;-75
2021/04/14 10:03:42;;;;;;;2.63;1.88;;;7.70;66.90;;;;;;5000125;28;20435;-75
2021/04/14 10:06:14;;;;;;;2.07;1.17;;;7.90;67.50;;;;;;5019044;28;20224;-75
2021/04/14 10:08:44;;;;;;;2.30;1.60;;;7.90;63.60;;;;;;5004038;28;20478;-76
2021/04/14 10:11:24;;;;;;;2.20;2.00;;;8.60;62.20;;;;;;5003839;28;20452;-75
2021/04/14 10:13:52;;;;;;;1.90;1.03;;;10.20;57.90;;;;;;5020913;28;20523;-75
2021/04/14 10:16:21;;;;;;;3.00;1.43;;;9.70;57.40;;;;;;4982393;28;20965;-75
2021/04/14 10:19:01;;;;;;;4.03;1.50;;;9.50;58.10;;;;;;4999326;28;20502;-74
2021/04/14 10:21:30;;;;;;;1.07;0.97;;;9.10;59.90;;;;;;5017569;28;20189;-74
2021/04/14 10:24:02;;;;;;;1.60;1.47;;;8.70;60.30;;;;;;4982939;28;20444;-75
2021/04/14 10:26:32;;;;;;;1.90;1.43;;;8.50;62.00;;;;;;4999815;28;20906;-74
2021/04/14 10:29:01;;;;;;;2.33;1.90;;;8.50;64.10;;;;;;5016833;28;20499;-75
2021/04/14 10:31:32;;;;;;;2.93;1.80;;;8.20;65.50;;;;;;5015848;28;20449;-74
2021/04/14 10:34:10;;;;;;;5.30;1.93;;;7.90;66.30;;;;;;4982337;28;20475;-74
2021/04/14 10:36:42;;;;;;;2.00;1.70;;;7.70;67.20;;;;;;5000157;28;20422;-74
2021/04/14 10:39:15;;;;;;;6.03;1.97;;;8.00;66.30;;;;;;5018211;28;20450;-75
2021/04/14 10:41:45;;;;;;;2.47;2.27;;;7.80;66.00;;;;;;5016345;28;20426;-74
2021/04/14 10:44:19;;;;;;;2.17;1.73;;;7.80;67.10;;;;;;4998670;28;20444;-74
2021/04/14 10:46:47;;;;;;;3.80;1.70;;;7.80;66.90;;;;;;5017010;28;20441;-75
2021/04/14 10:49:25;;;;;;;2.47;1.63;;;7.90;65.00;;;;;;5016006;28;20454;-74
2021/04/14 10:51:54;;;;;;;3.40;1.42;;;7.60;62.80;;;;;;4997290;28;20443;-75
2021/04/14 10:54:29;;;;;;;1.80;1.70;;;7.60;62.60;;;;;;4997949;28;20190;-74
2021/04/14 10:56:59;;;;;;;3.03;1.10;;;7.60;63.90;;;;;;4997974;28;20451;-74
2021/04/14 10:59:26;;;;;;;3.43;1.60;;;7.50;65.30;;;;;;5014451;28;20429;-74
2021/04/14 11:01:54;;;;;;;2.33;1.80;;;7.40;64.40;;;;;;5014370;28;20956;-78
2021/04/14 11:04:36;;;;;;;2.43;1.63;;;7.70;65.90;;;;;;5014833;28;20429;-75
2021/04/14 11:07:07;;;;;;;1.17;0.90;;;7.80;67.80;;;;;;4997585;28;20524;-74
2021/04/14 11:09:38;;;;;;;4.30;1.53;;;8.20;66.60;;;;;;4997846;28;20427;-75
2021/04/14 11:12:09;;;;;;;1.43;1.33;;;8.10;66.00;;;;;;5014978;28;20911;-75
2021/04/14 11:14:39;;;;;;;1.53;1.37;;;7.70;64.70;;;;;;4997781;28;20510;-74
2021/04/14 11:17:08;;;;;;;2.03;1.73;;;7.80;65.00;;;;;;5014333;28;20475;-74
2021/04/14 11:19:43;;;;;;;3.17;2.00;;;8.20;64.50;;;;;;5017890;28;20439;-75
2021/04/14 11:22:12;;;;;;;1.57;1.47;;;8.20;64.20;;;;;;5018387;28;20414;-76
2021/04/14 11:24:45;;;;;;;3.03;2.27;;;8.30;65.30;;;;;;5019501;28;20421;-74
2021/04/14 11:27:19;;;;;;;1.30;1.20;;;8.10;65.90;;;;;;5019058;28;20409;-75
2021/04/14 11:29:48;;;;;;;2.03;1.17;;;8.00;65.20;;;;;;5018235;28;20434;-77
2021/04/14 11:32:19;;;;;;;1.40;1.10;;;8.40;62.10;;;;;;5017152;28;20946;-75
2021/04/14 11:35:00;;;;;;;1.13;0.70;;;8.10;59.80;;;;;;5001043;28;20442;-77
2021/04/14 11:37:40;;;;;;;1.47;1.07;;;8.20;60.10;;;;;;5018255;28;20445;-75
2021/04/14 11:40:30;;;;;;;2.80;1.10;;;8.30;60.00;;;;;;5018312;28;20463;-75
2021/04/14 11:43:00;;;;;;;1.20;1.00;;;8.50;58.80;;;;;;5018169;28;20431;-74
2021/04/14 11:45:32;;;;;;;1.80;1.17;;;8.30;59.30;;;;;;4999384;28;20505;-75
2021/04/14 11:48:08;;;;;;;3.70;1.30;;;8.20;60.20;;;;;;4984960;28;20521;-75
2021/04/14 11:50:38;;;;;;;1.63;1.40;;;8.70;61.80;;;;;;5000929;28;20452;-75
2021/04/14 11:53:20;;;;;;;1.20;1.00;;;9.20;58.40;;;;;;5001404;28;20406;-75
2021/04/14 11:55:49;;;;;;;1.67;1.40;;;9.40;55.90;;;;;;5018747;28;20792;-75
2021/04/14 11:58:25;;;;;;;1.93;1.40;;;9.80;55.30;;;;;;5017962;28;20196;-75
2021/04/14 12:00:53;;;;;;;1.27;1.10;;;9.10;55.30;;;;;;4998368;28;20948;-74
2021/04/14 12:03:29;;;;;;;2.70;1.60;;;8.50;56.90;;;;;;4998860;28;20489;-75
2021/04/14 12:05:59;;;;;;;2.63;1.13;;;8.90;57.50;;;;;;4999861;28;20197;-75
2021/04/14 12:08:29;;;;;;;3.70;1.20;;;9.40;59.20;;;;;;4999817;28;20447;-77
2021/04/14 12:10:57;;;;;;;2.50;1.52;;;9.50;58.60;;;;;;5017867;28;20447;-74
2021/04/14 12:13:25;;;;;;;2.47;1.90;;;9.70;58.60;;;;;;4999038;28;20431;-75
2021/04/14 12:15:52;;;;;;;2.73;1.67;;;9.80;59.40;;;;;;4982335;28;20248;-75
2021/04/14 12:18:20;;;;;;;1.67;1.57;;;9.70;57.00;;;;;;4998868;28;20452;-78
2021/04/14 12:21:13;;;;;;;3.20;1.50;;;9.90;57.30;;;;;;4999263;28;20448;-75
2021/04/14 12:23:42;;;;;;;1.87;1.67;;;9.90;55.10;;;;;;4999625;28;20515;-78
2021/04/14 12:26:09;;;;;;;2.00;1.70;;;10.40;54.90;;;;;;5003844;28;20612;-76
2021/04/14 12:28:37;;;;;;;2.63;1.47;;;10.40;52.70;;;;;;5004165;28;20478;-75
2021/04/14 12:31:04;;;;;;;2.85;1.65;;;10.80;52.60;;;;;;5017505;28;20438;-75
2021/04/14 12:33:49;;;;;;;1.87;1.77;;;11.80;51.80;;;;;;5022982;28;20303;-75
2021/04/14 12:36:19;;;;;;;1.93;1.40;;;11.70;50.40;;;;;;5018946;28;20971;-75
2021/04/14 12:38:48;;;;;;;1.47;1.37;;;12.80;49.20;;;;;;5017956;28;20441;-75
2021/04/14 12:41:15;;;;;;;54.17;32.57;;;12.10;47.30;;;;;;5018873;28;20439;-75
2021/04/14 12:43:42;;;;;;;2.90;1.37;;;11.50;47.90;;;;;;5000850;28;20768;-74
2021/04/14 12:46:10;;;;;;;5.80;2.03;;;11.00;49.30;;;;;;5017260;28;20999;-75
2021/04/14 12:48:42;;;;;;;1.90;1.60;;;11.10;49.10;;;;;;5016064;28;20451;-74
2021/04/14 12:51:18;;;;;;;1.70;1.60;;;11.00;50.00;;;;;;4999126;28;20436;-75
2021/04/14 12:53:50;;;;;;;1.80;1.70;;;10.40;50.70;;;;;;5016451;28;20509;-75
2021/04/14 12:56:25;;;;;;;1.70;1.50;;;10.00;52.00;;;;;;5017069;28;20843;-74
2021/04/14 12:58:55;;;;;;;5.83;1.60;;;9.50;53.60;;;;;;4998556;28;20462;-75
2021/04/14 13:04:23;;;;;;;54.17;52.17;;;8.70;56.90;;;;;;5015579;28;20409;-74
2021/04/14 13:06:55;;;;;;;541.97;516.15;;;8.80;58.80;;;;;;5014914;28;20492;-78
2021/04/14 13:09:24;;;;;;;58.83;55.97;;;8.60;59.30;;;;;;4998330;28;20121;-74
2021/04/14 13:11:57;;;;;;;120.53;108.60;;;8.40;59.60;;;;;;5016078;28;20770;-75
2021/04/14 13:14:24;;;;;;;355.55;342.25;;;8.60;61.60;;;;;;5014838;28;20412;-74
2021/04/14 13:17:01;;;;;;;597.45;552.05;;;8.70;61.10;;;;;;5013442;28;20723;-75
2021/04/14 13:19:33;;;;;;;512.70;455.38;;;8.40;60.80;;;;;;4980318;28;20460;-75
2021/04/14 13:22:06;;;;;;;514.63;460.23;;;8.40;61.20;;;;;;5014392;28;20416;-75
2021/04/14 13:24:39;;;;;;;564.55;405.90;;;8.40;61.60;;;;;;4996916;28;20412;-75
2021/04/14 13:27:21;;;;;;;570.87;423.27;;;8.50;61.90;;;;;;4996592;28;20914;-75
2021/04/14 13:29:56;;;;;;;666.70;622.70;;;8.80;60.90;;;;;;4996089;28;20432;-75